createdAt,value
2023-02-14T00:01:09.602Z,37.38
2023-02-14T00:03:42.454Z,40.47
2023-02-14T00:06:15.568Z,40.00
2023-02-14T00:08:48.356Z,35.60
2023-02-14T00:11:21.639Z,43.38
2023-02-14T00:14:13.549Z,37.22
2023-02-14T00:16:46.360Z,41.22
2023-02-14T00:19:20.562Z,40.25
2023-02-14T00:21:53.597Z,40.75
2023-02-14T00:24:27.890Z,44.65
2023-02-14T00:27:00.764Z,34.75
2023-02-14T00:29:35.319Z,39.10
2023-02-14T00:32:08.115Z,38.40
2023-02-14T00:34:41.773Z,33.08
2023-02-14T00:37:16.457Z,39.10
2023-02-14T00:39:49.288Z,38.58
2023-02-14T00:42:22.404Z,41.78
2023-02-14T00:44:56.570Z,36.55
2023-02-14T00:47:29.493Z,37.13
2023-02-14T00:50:04.265Z,38.03
2023-02-14T00:52:36.990Z,42.15
2023-02-14T00:55:09.755Z,41.25
2023-02-14T00:57:42.465Z,38.75
2023-02-14T01:00:17.472Z,42.50
2023-02-14T01:02:50.352Z,43.95
2023-02-14T01:05:23.170Z,46.50
2023-02-14T01:07:56.026Z,39.20
2023-02-14T01:10:28.914Z,38.10
2023-02-14T01:13:01.678Z,40.63
2023-02-14T01:15:40.249Z,41.10
2023-02-14T01:18:13.684Z,42.55
2023-02-14T01:20:47.114Z,42.63
2023-02-14T01:23:19.897Z,43.83
2023-02-14T01:25:54.904Z,41.58
2023-02-14T01:28:27.714Z,40.80
2023-02-14T01:31:08.911Z,46.00
2023-02-14T01:33:43.436Z,41.75
2023-02-14T01:36:17.990Z,45.38
2023-02-14T01:38:52.899Z,40.10
2023-02-14T01:41:27.525Z,47.88
2023-02-14T01:44:02.700Z,42.63
2023-02-14T01:46:38.691Z,42.38
2023-02-14T01:49:15.558Z,43.15
2023-02-14T01:51:53.939Z,41.85
2023-02-14T01:54:30.351Z,50.47
2023-02-14T01:57:09.215Z,44.50
2023-02-14T01:59:47.191Z,50.83
2023-02-14T02:02:23.894Z,39.90
2023-02-14T02:04:57.458Z,45.78
2023-02-14T02:07:31.820Z,42.05
2023-02-14T02:10:06.850Z,49.42
2023-02-14T02:12:40.048Z,43.22
2023-02-14T02:15:13.131Z,44.80
2023-02-14T02:17:58.728Z,47.63
2023-02-14T02:21:01.700Z,41.55
2023-02-14T02:24:05.654Z,45.00
2023-02-14T02:27:16.086Z,45.47
2023-02-14T02:30:32.917Z,39.05
2023-02-14T02:33:46.931Z,41.03
2023-02-14T02:36:44.985Z,42.83
2023-02-14T02:39:30.457Z,43.45
2023-02-14T02:42:11.020Z,38.03
2023-02-14T02:44:52.896Z,42.03
2023-02-14T02:47:31.826Z,41.85
2023-02-14T02:50:30.609Z,43.28
2023-02-14T02:53:15.264Z,40.05
2023-02-14T02:56:12.867Z,49.85
2023-02-14T02:58:52.862Z,55.63
2023-02-14T03:01:32.888Z,47.00
2023-02-14T03:04:27.009Z,44.33
2023-02-14T03:07:00.822Z,47.78
2023-02-14T03:09:58.096Z,51.42
2023-02-14T03:12:55.668Z,54.85
2023-02-14T03:15:40.163Z,51.30
2023-02-14T03:18:47.906Z,46.58
2023-02-14T03:21:29.715Z,46.70
2023-02-14T03:24:10.790Z,51.25
2023-02-14T03:26:50.492Z,56.33
2023-02-14T03:29:32.378Z,50.97
2023-02-14T03:32:15.528Z,59.78
2023-02-14T03:34:55.271Z,51.95
2023-02-14T03:37:34.187Z,50.00
2023-02-14T03:40:12.046Z,49.80
2023-02-14T03:42:51.511Z,50.63
2023-02-14T03:45:33.387Z,47.08
2023-02-14T03:48:10.575Z,49.13
2023-02-14T03:50:48.859Z,46.67
2023-02-14T03:53:24.867Z,47.50
2023-02-14T03:56:04.603Z,47.53
2023-02-14T03:58:41.783Z,49.88
2023-02-14T04:01:20.581Z,45.30
2023-02-14T04:03:58.474Z,42.33
2023-02-14T04:06:31.648Z,47.25
2023-02-14T04:09:05.285Z,48.35
2023-02-14T04:11:40.448Z,45.08
2023-02-14T04:14:15.017Z,51.13
2023-02-14T04:17:05.568Z,45.15
2023-02-14T04:19:39.845Z,43.22
2023-02-14T04:22:12.614Z,42.53
2023-02-14T04:24:45.821Z,45.33
2023-02-14T04:27:18.608Z,44.88
2023-02-14T04:29:52.787Z,43.13
2023-02-14T04:32:25.622Z,46.83
2023-02-14T04:34:58.468Z,44.35
2023-02-14T04:37:31.241Z,45.20
2023-02-14T04:40:04.577Z,44.92
2023-02-14T04:42:37.304Z,41.80
2023-02-14T04:45:12.010Z,43.75
2023-02-14T04:47:47.812Z,42.35
2023-02-14T04:50:20.776Z,38.72
2023-02-14T04:52:53.946Z,40.15
2023-02-14T04:55:26.854Z,39.08
2023-02-14T04:57:59.594Z,46.92
2023-02-14T05:00:33.843Z,43.13
2023-02-14T05:03:06.615Z,39.38
2023-02-14T05:05:39.384Z,42.30
2023-02-14T05:08:12.186Z,39.60
2023-02-14T05:10:45.019Z,42.25
2023-02-14T05:13:18.133Z,38.90
2023-02-14T05:15:52.257Z,43.65
2023-02-14T05:18:25.241Z,41.30
2023-02-14T05:20:58.392Z,40.70
2023-02-14T05:23:56.889Z,38.17
2023-02-14T05:26:32.556Z,39.08
2023-02-14T05:29:06.060Z,42.63
2023-02-14T05:32:27.147Z,40.00
2023-02-14T05:35:35.941Z,48.90
2023-02-14T05:38:08.936Z,41.40
2023-02-14T05:40:45.506Z,46.35
2023-02-14T05:43:18.289Z,43.78
2023-02-14T05:45:51.393Z,40.92
2023-02-14T05:48:25.805Z,42.40
2023-02-14T05:50:58.962Z,37.00
2023-02-14T05:53:31.950Z,44.30
2023-02-14T05:56:05.691Z,44.75
2023-02-14T05:58:38.489Z,44.78
2023-02-14T06:01:11.345Z,41.35
2023-02-14T06:03:45.570Z,41.97
2023-02-14T06:06:18.381Z,43.63
2023-02-14T06:08:51.174Z,45.13
2023-02-14T06:11:23.955Z,47.90
2023-02-14T06:13:56.917Z,41.63
2023-02-14T06:16:29.727Z,34.53
2023-02-14T06:19:03.988Z,41.92
2023-02-14T06:21:36.995Z,42.10
2023-02-14T06:24:10.168Z,42.33
2023-02-14T06:26:43.177Z,36.15
2023-02-14T06:29:17.991Z,42.63
2023-02-14T06:31:50.822Z,41.30
2023-02-14T06:34:24.999Z,44.40
2023-02-14T06:36:57.734Z,40.40
2023-02-14T06:39:30.991Z,44.67
2023-02-14T06:42:03.716Z,43.35
2023-02-14T06:44:36.503Z,42.03
2023-02-14T06:47:09.458Z,34.97
2023-02-14T06:49:43.600Z,39.13
2023-02-14T06:52:16.378Z,37.47
2023-02-14T06:54:49.100Z,38.28
2023-02-14T06:57:21.923Z,40.22
2023-02-14T06:59:54.813Z,40.17
2023-02-14T07:02:27.526Z,39.97
2023-02-14T07:05:01.671Z,34.45
2023-02-14T07:07:34.455Z,39.92
2023-02-14T07:10:08.453Z,37.20
2023-02-14T07:12:41.250Z,38.08
2023-02-14T07:15:17.253Z,39.30
2023-02-14T07:17:50.067Z,39.83
2023-02-14T07:20:24.335Z,35.13
2023-02-14T07:22:57.072Z,36.50
2023-02-14T07:25:29.954Z,39.67
2023-02-14T07:28:04.744Z,36.85
2023-02-14T07:30:37.786Z,37.33
2023-02-14T07:33:10.773Z,41.90
2023-02-14T07:35:45.036Z,36.80
2023-02-14T07:38:18.038Z,38.13
2023-02-14T07:40:50.950Z,37.50
2023-02-14T07:43:24.345Z,39.20
2023-02-14T07:45:57.513Z,33.75
2023-02-14T07:48:32.535Z,31.52
2023-02-14T07:51:08.201Z,35.90
2023-02-14T07:53:41.167Z,31.83
2023-02-14T07:56:13.998Z,37.03
2023-02-14T07:58:47.053Z,34.85
2023-02-14T08:01:21.022Z,30.83
2023-02-14T08:03:53.959Z,38.28
2023-02-14T08:06:28.190Z,36.05
2023-02-14T08:09:01.400Z,30.42
2023-02-14T08:11:51.316Z,32.58
2023-02-14T08:14:24.346Z,33.42
2023-02-14T08:16:57.100Z,37.78
2023-02-14T08:19:30.034Z,33.05
2023-02-14T08:22:04.253Z,33.83
2023-02-14T08:24:37.441Z,33.33
2023-02-14T08:27:10.691Z,33.67
2023-02-14T08:29:43.369Z,33.30
2023-02-14T08:32:16.250Z,33.15
2023-02-14T08:34:49.111Z,35.63
2023-02-14T08:37:23.232Z,36.63
2023-02-14T08:39:56.050Z,32.58
2023-02-14T08:42:29.931Z,32.70
2023-02-14T08:45:02.845Z,34.08
2023-02-14T08:47:38.196Z,32.38
2023-02-14T08:50:13.451Z,34.22
2023-02-14T08:52:47.602Z,30.67
2023-02-14T08:55:20.369Z,32.85
2023-02-14T08:57:53.104Z,33.92
2023-02-14T09:00:26.037Z,34.78
2023-02-14T09:02:59.196Z,33.90
2023-02-14T09:05:32.025Z,29.30
2023-02-14T09:08:06.435Z,34.00
2023-02-14T09:10:39.253Z,34.10
2023-02-14T09:13:12.029Z,35.83
2023-02-14T09:15:44.821Z,38.63
2023-02-14T09:18:17.575Z,31.92
2023-02-14T09:20:50.303Z,33.47
2023-02-14T09:23:24.401Z,30.60
2023-02-14T09:26:02.174Z,33.47
2023-02-14T09:28:35.398Z,31.50
2023-02-14T09:31:13.336Z,29.88
2023-02-14T09:33:47.203Z,31.20
2023-02-14T09:36:20.018Z,34.60
2023-02-14T09:38:54.181Z,29.35
2023-02-14T09:41:49.892Z,34.00
2023-02-14T09:44:29.265Z,30.80
2023-02-14T09:47:08.215Z,29.60
2023-02-14T09:49:41.362Z,32.58
2023-02-14T09:52:17.090Z,34.13
2023-02-14T09:54:57.720Z,30.33
2023-02-14T09:57:41.189Z,28.58
2023-02-14T10:00:30.611Z,29.13
2023-02-14T10:03:17.351Z,31.13
2023-02-14T10:06:00.296Z,28.77
2023-02-14T10:08:48.212Z,29.90
2023-02-14T10:11:25.643Z,28.60
2023-02-14T10:14:05.125Z,30.95
2023-02-14T10:16:43.675Z,28.10
2023-02-14T10:19:23.245Z,30.80
2023-02-14T10:22:00.544Z,27.55
2023-02-14T10:24:37.823Z,29.77
2023-02-14T10:27:18.349Z,26.48
2023-02-14T10:29:51.342Z,31.95
2023-02-14T10:32:31.759Z,25.48
2023-02-14T10:37:51.929Z,32.90
2023-02-14T10:40:42.070Z,28.65
2023-02-14T10:43:27.203Z,27.77
2023-02-14T10:46:08.927Z,26.60
2023-02-14T10:48:56.213Z,28.05
2023-02-14T10:51:36.368Z,29.33
2023-02-14T10:54:19.687Z,25.92
2023-02-14T10:56:58.712Z,28.33
2023-02-14T10:59:39.804Z,26.02
2023-02-14T11:02:16.862Z,28.33
2023-02-14T11:04:50.795Z,25.45
2023-02-14T11:07:23.855Z,28.58
2023-02-14T11:09:57.174Z,29.90
2023-02-14T11:12:34.932Z,27.20
2023-02-14T11:15:24.142Z,30.05
2023-02-14T11:18:14.293Z,34.90
2023-02-14T11:21:01.591Z,27.58
2023-02-14T11:23:37.647Z,24.73
2023-02-14T11:26:17.493Z,31.42
2023-02-14T11:28:55.066Z,30.85
2023-02-14T11:31:32.607Z,29.45
2023-02-14T11:34:07.749Z,30.10
2023-02-14T11:36:43.002Z,29.88
2023-02-14T11:39:28.897Z,28.80
2023-02-14T11:42:05.069Z,26.90
2023-02-14T11:44:43.899Z,27.20
2023-02-14T11:47:25.570Z,28.02
2023-02-14T11:50:01.009Z,29.10
2023-02-14T11:52:40.515Z,27.80
2023-02-14T11:55:25.619Z,25.10
2023-02-14T11:57:59.185Z,26.92
2023-02-14T12:00:33.785Z,31.63
2023-02-14T12:03:08.284Z,26.27
2023-02-14T12:05:48.687Z,28.65
2023-02-14T12:11:06.479Z,27.17
2023-02-14T12:13:39.376Z,25.98
2023-02-14T12:16:23.174Z,30.50
2023-02-14T12:19:03.628Z,27.77
2023-02-14T12:24:26.931Z,26.77
2023-02-14T12:27:07.216Z,24.48
2023-02-14T12:29:43.826Z,24.00
2023-02-14T12:32:22.685Z,27.15
2023-02-14T12:35:03.044Z,24.92
2023-02-14T12:37:50.841Z,26.60
2023-02-14T12:40:38.154Z,24.40
2023-02-14T12:43:26.632Z,25.75
2023-02-14T12:46:21.131Z,23.30
2023-02-14T12:49:12.635Z,22.73
2023-02-14T12:51:53.364Z,26.17
2023-02-14T12:54:41.497Z,24.75
2023-02-14T12:57:32.989Z,25.65
2023-02-14T13:00:19.572Z,24.88
2023-02-14T13:03:17.332Z,25.20
2023-02-14T13:05:59.457Z,26.17
2023-02-14T13:09:01.402Z,26.85
2023-02-14T13:11:40.950Z,29.48
2023-02-14T13:14:32.053Z,27.80
2023-02-14T13:17:11.886Z,22.58
2023-02-14T13:19:55.218Z,26.50
2023-02-14T13:22:30.954Z,26.25
2023-02-14T13:25:11.334Z,22.02
2023-02-14T13:27:44.227Z,26.00
2023-02-14T13:30:25.606Z,27.48
2023-02-14T13:33:02.972Z,25.02
2023-02-14T13:35:36.250Z,24.17
2023-02-14T13:38:15.068Z,24.60
2023-02-14T13:40:49.974Z,23.42
2023-02-14T13:43:48.630Z,24.80
2023-02-14T13:46:37.880Z,24.52
2023-02-14T13:49:26.172Z,26.35
2023-02-14T13:52:02.800Z,22.40
2023-02-14T13:54:45.099Z,26.10
2023-02-14T13:57:34.332Z,25.20
2023-02-14T14:00:38.553Z,25.88
2023-02-14T14:03:15.642Z,25.73
2023-02-14T14:06:01.703Z,25.90
2023-02-14T14:08:40.713Z,24.48
2023-02-14T14:11:59.599Z,21.77
2023-02-14T14:14:39.930Z,24.08
2023-02-14T14:19:57.910Z,24.15
2023-02-14T14:22:30.977Z,22.15
2023-02-14T14:25:08.368Z,24.85
2023-02-14T14:27:45.536Z,28.33
2023-02-14T14:30:24.928Z,26.40
2023-02-14T14:33:13.178Z,26.80
2023-02-14T14:35:53.839Z,26.52
2023-02-14T14:38:27.958Z,26.55
2023-02-14T14:41:01.728Z,23.58
2023-02-14T14:43:37.179Z,26.92
2023-02-14T14:46:14.195Z,25.67
2023-02-14T14:48:50.080Z,26.90
2023-02-14T14:51:28.790Z,27.88
2023-02-14T14:54:04.651Z,28.55
2023-02-14T14:56:46.952Z,28.70
2023-02-14T14:59:28.688Z,29.35
2023-02-14T15:02:03.470Z,30.08
2023-02-14T15:04:37.075Z,25.67
2023-02-14T15:07:23.928Z,27.65
2023-02-14T15:09:56.768Z,29.17
2023-02-14T15:12:48.322Z,26.42
2023-02-14T15:15:21.424Z,23.67
2023-02-14T15:17:56.890Z,26.13
2023-02-14T15:20:29.667Z,30.30
2023-02-14T15:23:02.944Z,26.48
2023-02-14T15:25:38.682Z,27.90
2023-02-14T15:28:17.346Z,28.08
2023-02-14T15:30:57.582Z,28.40
2023-02-14T15:33:32.763Z,28.15
2023-02-14T15:36:09.356Z,35.42
2023-02-14T15:38:43.123Z,27.05
2023-02-14T15:41:17.752Z,37.35
2023-02-14T15:43:53.835Z,33.22
2023-02-14T15:46:33.686Z,30.92
2023-02-14T15:49:11.460Z,31.38
2023-02-14T15:51:44.698Z,30.27
2023-02-14T15:54:33.290Z,29.05
2023-02-14T15:57:07.952Z,33.40
2023-02-14T15:59:43.471Z,31.98
2023-02-14T16:02:35.662Z,28.77
2023-02-14T16:05:18.297Z,29.15
2023-02-14T16:07:59.632Z,29.25
2023-02-14T16:10:34.719Z,33.42
2023-02-14T16:13:19.630Z,32.58
2023-02-14T16:15:58.483Z,34.83
2023-02-14T16:18:37.884Z,28.23
2023-02-14T16:21:17.508Z,34.42
2023-02-14T16:24:13.917Z,34.63
2023-02-14T16:26:47.694Z,37.95
2023-02-14T16:29:21.880Z,40.45
2023-02-14T16:32:14.771Z,35.95
2023-02-14T16:34:49.455Z,32.42
2023-02-14T16:37:25.609Z,31.55
2023-02-14T16:39:59.166Z,33.33
2023-02-14T16:42:32.672Z,35.70
2023-02-14T16:45:05.871Z,36.03
2023-02-14T16:47:38.614Z,31.40
2023-02-14T16:50:12.340Z,36.28
2023-02-14T16:52:50.512Z,37.85
2023-02-14T16:55:23.313Z,35.58
2023-02-14T16:57:56.110Z,38.75
2023-02-14T17:00:28.915Z,32.33
2023-02-14T17:03:07.210Z,34.33
2023-02-14T17:05:40.838Z,40.03
2023-02-14T17:08:16.391Z,46.67
2023-02-14T17:10:49.744Z,37.83
2023-02-14T17:13:25.203Z,46.08
2023-02-14T17:15:58.440Z,45.40
2023-02-14T17:18:33.597Z,45.60
2023-02-14T17:21:06.750Z,40.30
2023-02-14T17:23:40.854Z,35.05
2023-02-14T17:26:14.264Z,36.90
2023-02-14T17:28:47.444Z,42.30
2023-02-14T17:31:20.464Z,33.63
2023-02-14T17:33:53.393Z,33.88
2023-02-14T17:36:27.836Z,33.95
2023-02-14T17:39:03.270Z,36.47
2023-02-14T17:41:36.073Z,33.95
2023-02-14T17:44:08.866Z,35.40
2023-02-14T17:46:41.635Z,32.55
2023-02-14T17:49:14.519Z,33.15
2023-02-14T17:51:47.388Z,36.13
2023-02-14T17:54:21.529Z,38.72
2023-02-14T17:56:54.285Z,37.08
2023-02-14T17:59:27.036Z,38.03
2023-02-14T18:02:00.209Z,38.22
2023-02-14T18:04:34.941Z,32.85
2023-02-14T18:07:07.818Z,36.20
2023-02-14T18:09:41.916Z,37.05
2023-02-14T18:12:15.238Z,35.30
2023-02-14T18:14:48.092Z,41.35
2023-02-14T18:17:20.864Z,36.67
2023-02-14T18:19:53.887Z,40.35
2023-02-14T18:22:27.821Z,41.95
2023-02-14T18:25:02.000Z,41.45
2023-02-14T18:27:34.736Z,40.58
2023-02-14T18:30:08.904Z,47.25
2023-02-14T18:32:41.728Z,41.95
2023-02-14T18:35:15.210Z,38.22
2023-02-14T18:37:48.739Z,39.60
2023-02-14T18:40:22.966Z,40.95
2023-02-14T18:42:55.818Z,36.30
2023-02-14T18:45:28.696Z,41.63
2023-02-14T18:48:01.451Z,41.50
2023-02-14T18:50:35.286Z,39.55
2023-02-14T18:53:08.027Z,52.88
2023-02-14T18:55:42.134Z,44.65
2023-02-14T18:58:14.966Z,47.05
2023-02-14T19:00:47.747Z,53.30
2023-02-14T19:03:20.523Z,49.65
2023-02-14T19:05:53.800Z,56.08
2023-02-14T19:08:26.563Z,55.03
2023-02-14T19:11:01.160Z,46.60
2023-02-14T19:13:34.043Z,48.10
2023-02-14T19:16:12.268Z,46.33
2023-02-14T19:18:45.336Z,40.13
2023-02-14T19:21:20.255Z,42.70
2023-02-14T19:23:56.041Z,48.80
2023-02-14T19:26:32.888Z,54.08
2023-02-14T19:29:07.904Z,45.38
2023-02-14T19:31:43.093Z,46.90
2023-02-14T19:34:18.298Z,47.65
2023-02-14T19:36:52.735Z,48.67
2023-02-14T19:39:25.868Z,50.10
2023-02-14T19:42:00.478Z,46.15
2023-02-14T19:44:33.342Z,41.42
2023-02-14T19:47:23.343Z,39.97
2023-02-14T19:49:59.126Z,45.13
2023-02-14T19:52:32.174Z,46.40
2023-02-14T19:55:05.256Z,47.63
2023-02-14T19:57:41.080Z,45.72
2023-02-14T20:00:16.105Z,47.17
2023-02-14T20:02:49.224Z,48.83
2023-02-14T20:05:25.155Z,50.45
2023-02-14T20:07:58.431Z,43.80
2023-02-14T20:10:31.317Z,42.67
2023-02-14T20:13:05.477Z,47.80
2023-02-14T20:15:39.939Z,45.83
2023-02-14T20:18:15.838Z,43.97
2023-02-14T20:21:03.203Z,40.50
2023-02-14T20:23:36.104Z,38.30
2023-02-14T20:26:13.154Z,40.33
2023-02-14T20:28:50.904Z,41.70
2023-02-14T20:31:23.869Z,42.60
2023-02-14T20:33:56.902Z,38.75
2023-02-14T20:36:29.875Z,36.75
2023-02-14T20:39:07.181Z,38.78
2023-02-14T20:41:43.809Z,47.05
2023-02-14T20:44:21.627Z,47.28
2023-02-14T20:46:56.532Z,42.53
2023-02-14T20:49:32.687Z,50.15
2023-02-14T20:52:06.086Z,49.13
2023-02-14T20:54:40.077Z,52.60
2023-02-14T20:57:13.036Z,45.95
2023-02-14T20:59:47.339Z,42.28
2023-02-14T21:02:20.583Z,47.60
2023-02-14T21:04:53.690Z,48.28
2023-02-14T21:07:30.719Z,49.33
2023-02-14T21:10:03.716Z,49.58
2023-02-14T21:12:38.591Z,54.45
2023-02-14T21:15:15.705Z,55.25
2023-02-14T21:17:48.813Z,47.40
2023-02-14T21:20:22.814Z,45.83
2023-02-14T21:22:57.262Z,45.95
2023-02-14T21:25:31.350Z,45.17
2023-02-14T21:28:04.213Z,38.72
2023-02-14T21:30:38.416Z,38.03
2023-02-14T21:33:11.201Z,42.35
2023-02-14T21:35:49.306Z,43.40
2023-02-14T21:38:24.492Z,45.38
2023-02-14T21:41:04.243Z,42.30
2023-02-14T21:43:38.877Z,43.28
2023-02-14T21:46:15.971Z,45.63
2023-02-14T21:49:06.151Z,51.50
2023-02-14T21:51:41.861Z,49.10
2023-02-14T21:54:15.335Z,56.70
2023-02-14T21:56:49.167Z,47.40
2023-02-14T21:59:30.169Z,45.33
2023-02-14T22:02:04.955Z,45.08
2023-02-14T22:04:38.098Z,44.92
2023-02-14T22:07:10.882Z,39.80
2023-02-14T22:09:43.591Z,45.85
2023-02-14T22:12:16.393Z,41.95
2023-02-14T22:14:49.185Z,47.80
2023-02-14T22:17:23.330Z,47.35
2023-02-14T22:19:56.077Z,41.92
2023-02-14T22:22:28.815Z,42.08
2023-02-14T22:25:01.818Z,41.97
2023-02-14T22:27:39.181Z,40.78
2023-02-14T22:30:12.563Z,43.20
2023-02-14T22:32:46.693Z,43.40
2023-02-14T22:35:19.518Z,43.75
2023-02-14T22:37:52.285Z,38.30
2023-02-14T22:40:25.086Z,38.10
2023-02-14T22:42:58.000Z,41.85
2023-02-14T22:45:30.781Z,42.03
2023-02-14T22:48:05.351Z,42.75
2023-02-14T22:50:38.291Z,43.90
2023-02-14T22:53:11.035Z,42.85
2023-02-14T22:55:43.810Z,39.22
2023-02-14T22:58:16.680Z,37.72
2023-02-14T23:00:49.410Z,37.10
2023-02-14T23:03:23.646Z,35.28
2023-02-14T23:05:57.193Z,35.38
2023-02-14T23:08:29.928Z,39.88
2023-02-14T23:11:08.156Z,41.70
2023-02-14T23:13:58.504Z,38.47
2023-02-14T23:22:19.464Z,34.28
2023-02-14T23:24:53.689Z,36.05
2023-02-14T23:27:30.965Z,37.83
2023-02-14T23:30:05.383Z,34.47
2023-02-14T23:32:38.406Z,35.00
2023-02-14T23:35:12.602Z,32.67
2023-02-14T23:37:45.431Z,37.08
2023-02-14T23:40:18.537Z,37.78
2023-02-14T23:42:54.035Z,34.13
2023-02-14T23:45:35.933Z,39.15
2023-02-14T23:48:08.710Z,37.80
2023-02-14T23:50:42.823Z,36.45
2023-02-14T23:53:16.097Z,29.70
2023-02-14T23:55:48.987Z,29.13
2023-02-14T23:58:21.734Z,30.17
